• Join FlightAware (Why Join?)
  • Login
  • US Flag 
09:15PM EDT


 

Airport Tracker/Info


-or-


 

Live Flight TrackerFlight Track Log ✈ N613BH ✈ 06-May-2013 ✈ KMJX - KLDJ

Flight Track Log - Related Links

Times and Time Zones

All times are in EDT time to prevent confusion due to time zone crossing. See the N613BH flight status page for this flight to view local times or setup timezone preferences in your user account.

Time Position Orientation Groundspeed Altitude Reporting Facility
EDT Latitude Longitude Course Direction KTS MPH feet Rate Location/Type
03:34PM 40.0863 -74.4036 332° Northwest  Level FlightAware Approximate
03:35PM 40.1147 -74.4236 332° Northwest  Level FlightAware Approximate
03:35PM 40.1167 -74.4167 323° Northwest 147 169 4,100  Level New York TRACON
03:36PM 40.1432 -74.4435 332° Northwest  Level FlightAware Approximate
03:36PM 40.1500 -74.4500 323° Northwest 147 169 4,000  Level New York TRACON
03:37PM 40.1717 -74.4634 332° Northwest  Level FlightAware Approximate
03:37PM 40.1833 -74.4833 323° Northwest 147 169 4,000  Level New York TRACON
03:38PM 40.2001 -74.4835 315° West  Level FlightAware Approximate
03:38PM 40.2167 -74.4667 21° North 137 158 4,000  Level New York TRACON
03:39PM 40.2227 -74.5136 315° West  Level FlightAware Approximate
03:39PM 40.2667 -74.4500 14° North 133 153 4,000  Level New York TRACON
03:40PM 40.2453 -74.5438 314° West  Level FlightAware Approximate
03:41PM 40.2590 -74.4962 258° West  Level FlightAware Approximate
03:41PM 40.2704 -74.5704 323° Northwest  Level FlightAware Approximate
03:41PM 40.3333 -74.4333 258° West 131 151 3,200  Level New York TRACON
03:43PM 40.3655 -74.4120 323° Northwest  Level Estimated
03:44PM 40.4333 -74.4000 58° Northeast 124 143 1,900  Level New York TRACON
03:45PM 40.4667 -74.3833 21° North 109 125 2,000 60 Climbing New York TRACON
03:48PM 40.5227 -74.3319 57° Northeast  Level Estimated
03:50PM 40.4606 -74.5727 58° Northeast  Level FlightAware Approximate
03:55PM 40.6167 -74.2333 57° Northeast  Level FlightAware Approximate
03:56PM 40.6174 -74.2446 57° Northeast  Level Estimated
03:57PM 40.6174 -74.2446 57° Northeast  Level Estimated
03:58PM 40.6174 -74.2446 57° Northeast  Level Estimated
03:59PM 40.6174 -74.2446 57° Northeast  Level Estimated